SETU/TUA METAR and TAF weather

Enter ICAO airport designator
Station Type Date Time Source
SETU METAR 2022/06/28 21:00 UTC NOAA

SETU 282100Z 12010G20KT 9999 SCT020 17/06 Q1031


Station Type Date Time Source
SETU Decoded METAR 2022/06/28 21:00 UTC NOAA

Tulcan / El Rosal, Ecuador (SETU) 00-49N 077-42W
Jun 28, 2022 - 05:00 PM EDT / 2022.06.28 2100 UTC
Wind: from the ESE (120 degrees) at 12 MPH (10 KT) gusting to 23 MPH (20 KT):0
Visibility: greater than 7 mile(s):0
Sky conditions: partly cloudy
Temperature: 62 F (17 C)
Dew Point: 42 F (6 C)
Relative Humidity: 48%
Pressure (altimeter): 30.45 in. Hg (1031 hPa)
ob: SETU 282100Z 12010G20KT 9999 SCT020 17/06 Q1031
cycle: 21

Station Type Date Time Source
SETU TAF UTC NOAA

Error!

Example: see airport list